createdAt,value
2022-11-05T00:01:38.513Z,100926.22
2022-11-05T00:04:05.175Z,100927.16
2022-11-05T00:06:31.612Z,100924.44
2022-11-05T00:08:58.006Z,100929.69
2022-11-05T00:11:24.381Z,100932.31
2022-11-05T00:13:50.832Z,100930.56
2022-11-05T00:16:17.210Z,100931.47
2022-11-05T00:18:43.591Z,100938.63
2022-11-05T00:21:10.007Z,100943.00
2022-11-05T00:23:36.381Z,100940.31
2022-11-05T00:26:04.482Z,100938.53
2022-11-05T00:28:31.183Z,100937.63
2022-11-05T00:31:04.599Z,100943.78
2022-11-05T00:33:31.234Z,100936.66
2022-11-05T00:35:57.662Z,100946.31
2022-11-05T00:38:24.266Z,100954.34
2022-11-05T00:40:50.657Z,100962.28
2022-11-05T00:43:17.039Z,100959.59
2022-11-05T00:45:43.446Z,100957.84
2022-11-05T00:48:09.879Z,100959.66
2022-11-05T00:50:36.253Z,100957.88
2022-11-05T00:53:02.770Z,100965.81
2022-11-05T00:55:39.000Z,100964.06
2022-11-05T00:58:12.700Z,100967.69
2022-11-05T01:00:40.690Z,100964.19
2022-11-05T01:03:13.327Z,100963.41
2022-11-05T01:05:44.466Z,100976.75
2022-11-05T01:08:11.627Z,100977.63
2022-11-05T01:10:50.228Z,100974.91
2022-11-05T01:13:18.562Z,100977.59
2022-11-05T01:15:45.232Z,100981.09
2022-11-05T01:18:11.727Z,100972.19
2022-11-05T01:20:38.293Z,100985.47
2022-11-05T01:23:08.927Z,100977.63
2022-11-05T01:25:39.487Z,100982.97
2022-11-05T01:28:05.901Z,100981.19
2022-11-05T01:30:32.293Z,100981.31
2022-11-05T01:32:58.690Z,100981.44
2022-11-05T01:35:26.459Z,100980.59
2022-11-05T01:37:52.857Z,100974.44
2022-11-05T01:40:22.014Z,100976.28
2022-11-05T01:42:48.418Z,100983.34
2022-11-05T01:45:22.202Z,100979.84
2022-11-05T01:48:01.851Z,100985.19
2022-11-05T01:50:45.114Z,100991.44
2022-11-05T01:53:28.412Z,100985.16
2022-11-05T01:56:03.366Z,100988.66
2022-11-05T01:58:33.921Z,100985.94
2022-11-05T02:01:00.328Z,100991.22
2022-11-05T02:03:26.717Z,100996.53
2022-11-05T02:05:53.095Z,100996.63
2022-11-05T02:08:28.590Z,101000.19
2022-11-05T02:10:54.995Z,100999.31
2022-11-05T02:13:21.379Z,101003.81
2022-11-05T02:15:51.661Z,101002.06
2022-11-05T02:18:29.024Z,101005.53
2022-11-05T02:21:27.289Z,101003.81
2022-11-05T02:24:00.352Z,101010.00
2022-11-05T02:26:49.118Z,101000.31
2022-11-05T02:29:47.343Z,100996.78
2022-11-05T02:32:41.034Z,101007.44
2022-11-05T02:35:31.357Z,101001.31
2022-11-05T02:38:13.125Z,100997.78
2022-11-05T02:40:52.617Z,100998.69
2022-11-05T02:43:34.765Z,101004.88
2022-11-05T02:46:12.254Z,100996.06
2022-11-05T02:48:38.565Z,100998.69
2022-11-05T02:51:10.106Z,101004.91
2022-11-05T02:53:49.784Z,101002.28
2022-11-05T02:56:24.257Z,101001.47
2022-11-05T02:58:50.658Z,101004.16
2022-11-05T03:01:17.183Z,101007.78
2022-11-05T03:03:48.552Z,101000.75
2022-11-05T03:06:18.413Z,101003.41
2022-11-05T03:09:17.182Z,100998.97
2022-11-05T03:12:06.055Z,101000.75
2022-11-05T03:14:36.499Z,101012.31
2022-11-05T03:17:17.880Z,101014.16
2022-11-05T03:20:10.759Z,101009.72
2022-11-05T03:22:40.724Z,101005.28
2022-11-05T03:25:11.013Z,101022.06
2022-11-05T03:27:38.631Z,101019.38
2022-11-05T03:30:09.287Z,101018.50
2022-11-05T03:32:37.542Z,101028.16
2022-11-05T03:35:23.067Z,101029.97
2022-11-05T03:37:50.062Z,101025.53
2022-11-05T03:40:16.822Z,101033.50
2022-11-05T03:42:45.006Z,101039.75
2022-11-05T03:45:15.756Z,101037.06
2022-11-05T03:47:42.899Z,101032.63
2022-11-05T03:50:41.233Z,101040.56
2022-11-05T03:53:16.147Z,101033.44
2022-11-05T03:56:05.006Z,101036.97
2022-11-05T03:58:31.379Z,101034.31
2022-11-05T04:00:59.857Z,101036.16
2022-11-05T04:03:26.235Z,101038.84
2022-11-05T04:05:54.015Z,101038.00
2022-11-05T04:08:20.411Z,101037.97
2022-11-05T04:10:46.784Z,101038.84
2022-11-05T04:13:13.392Z,101042.38
2022-11-05T04:15:39.954Z,101048.63
2022-11-05T04:18:06.332Z,101058.34
2022-11-05T04:20:32.692Z,101062.78
2022-11-05T04:23:03.605Z,101063.66
2022-11-05T04:25:30.004Z,101065.41
2022-11-05T04:27:58.850Z,101062.75
2022-11-05T04:30:25.306Z,101061.91
2022-11-05T04:33:12.363Z,101063.66
2022-11-05T04:35:40.767Z,101072.47
2022-11-05T04:38:14.362Z,101063.66
2022-11-05T04:40:40.982Z,101068.94
2022-11-05T04:43:13.645Z,101076.00
2022-11-05T04:45:41.440Z,101076.91
2022-11-05T04:48:07.820Z,101077.88
2022-11-05T04:50:34.230Z,101072.66
2022-11-05T04:53:00.620Z,101070.00
2022-11-05T04:55:27.138Z,101077.88
2022-11-05T04:57:53.723Z,101072.56
2022-11-05T05:00:20.970Z,101071.69
2022-11-05T05:02:47.472Z,101080.50
2022-11-05T05:05:13.911Z,101072.56
2022-11-05T05:07:40.836Z,101081.38
2022-11-05T05:10:07.687Z,101087.59
2022-11-05T05:12:34.414Z,101084.06
2022-11-05T05:15:00.814Z,101077.03
2022-11-05T05:17:27.239Z,101083.19
2022-11-05T05:19:53.662Z,101080.53
2022-11-05T05:22:20.108Z,101077.00
2022-11-05T05:24:52.441Z,101082.28
2022-11-05T05:27:19.264Z,101081.38
2022-11-05T05:29:45.638Z,101080.53
2022-11-05T05:32:12.013Z,101082.28
2022-11-05T05:34:38.386Z,101084.06
2022-11-05T05:37:04.786Z,101089.34
2022-11-05T05:39:31.169Z,101084.06
2022-11-05T05:41:57.623Z,101087.56
2022-11-05T05:44:24.082Z,101093.75
2022-11-05T05:46:50.450Z,101098.19
2022-11-05T05:49:16.838Z,101104.34
2022-11-05T05:51:43.204Z,101112.31
2022-11-05T05:54:10.649Z,101111.50
2022-11-05T05:56:37.017Z,101115.91
2022-11-05T05:59:05.029Z,101117.69
2022-11-05T06:01:31.474Z,101114.22
2022-11-05T06:03:57.913Z,101118.63
2022-11-05T06:06:24.306Z,101131.88
2022-11-05T06:08:50.678Z,101126.56
2022-11-05T06:11:17.058Z,101126.59
2022-11-05T06:13:43.470Z,101138.06
2022-11-05T06:16:10.005Z,101139.88
2022-11-05T06:18:36.710Z,101140.72
2022-11-05T06:21:07.328Z,101142.50
2022-11-05T06:23:34.335Z,101140.72
2022-11-05T06:26:05.131Z,101135.47
2022-11-05T06:28:31.751Z,101137.25
2022-11-05T06:30:58.144Z,101143.44
2022-11-05T06:33:24.519Z,101150.53
2022-11-05T06:35:50.915Z,101150.53
2022-11-05T06:38:17.302Z,101163.75
2022-11-05T06:40:43.699Z,101160.22
2022-11-05T06:43:10.482Z,101168.16
2022-11-05T06:45:37.150Z,101167.28
2022-11-05T06:48:03.596Z,101166.44
2022-11-05T06:50:31.158Z,101163.78
2022-11-05T06:53:01.224Z,101167.31
2022-11-05T06:55:28.350Z,101168.22
2022-11-05T06:57:55.156Z,101167.31
2022-11-05T07:00:21.706Z,101169.09
2022-11-05T07:02:48.187Z,101176.16
2022-11-05T07:05:14.780Z,101177.84
2022-11-05T07:07:41.522Z,101180.50
2022-11-05T07:10:09.012Z,101182.25
2022-11-05T07:12:35.416Z,101180.47
2022-11-05T07:15:01.800Z,101185.75
2022-11-05T07:17:28.229Z,101181.31
2022-11-05T07:19:54.605Z,101183.06
2022-11-05T07:22:21.009Z,101184.78
2022-11-05T07:24:47.392Z,101184.78
2022-11-05T07:27:14.084Z,101180.31
2022-11-05T07:29:40.481Z,101188.22
2022-11-05T07:32:06.887Z,101187.34
2022-11-05T07:34:33.257Z,101195.22
2022-11-05T07:36:59.652Z,101199.66
2022-11-05T07:39:26.035Z,101204.06
2022-11-05T07:41:52.745Z,101199.66
2022-11-05T07:44:19.117Z,101205.84
2022-11-05T07:46:47.256Z,101213.72
2022-11-05T07:49:13.728Z,101217.25
2022-11-05T07:51:40.136Z,101220.78
2022-11-05T07:54:06.949Z,101222.56
2022-11-05T07:56:33.345Z,101217.25
2022-11-05T07:58:59.850Z,101220.78
2022-11-05T08:01:26.502Z,101230.47
2022-11-05T08:03:53.076Z,101221.66
2022-11-05T08:06:19.461Z,101220.69
2022-11-05T08:08:45.868Z,101212.72
2022-11-05T08:11:12.302Z,101214.44
2022-11-05T08:13:38.682Z,101211.69
2022-11-05T08:16:05.955Z,101210.75
2022-11-05T08:18:32.407Z,101218.56
2022-11-05T08:20:59.543Z,101215.88
2022-11-05T08:23:26.549Z,101222.88
2022-11-05T08:25:53.006Z,101221.03
2022-11-05T08:28:19.398Z,101226.28
2022-11-05T08:30:52.345Z,101227.09
2022-11-05T08:33:19.010Z,101227.06
2022-11-05T08:35:45.679Z,101221.66
2022-11-05T08:38:15.989Z,101228.69
2022-11-05T08:40:43.234Z,101223.38
2022-11-05T08:43:10.967Z,101226.84
2022-11-05T08:45:38.471Z,101228.53
2022-11-05T08:48:10.956Z,101222.28
2022-11-05T08:50:37.801Z,101226.59
2022-11-05T08:53:04.742Z,101231.00
2022-11-05T08:55:37.695Z,101237.19
2022-11-05T08:58:05.733Z,101238.91
2022-11-05T09:00:34.001Z,101235.25
2022-11-05T09:03:02.500Z,101229.03
2022-11-05T09:05:30.121Z,101237.78
2022-11-05T09:08:01.019Z,101232.41
2022-11-05T09:10:28.120Z,101232.31
2022-11-05T09:12:55.115Z,101236.63
2022-11-05T09:15:21.511Z,101235.69
2022-11-05T09:17:47.906Z,101236.53
2022-11-05T09:20:14.384Z,101238.16
2022-11-05T09:22:43.443Z,101236.38
2022-11-05T09:25:10.112Z,101245.13
2022-11-05T09:27:36.486Z,101247.63
2022-11-05T09:30:03.170Z,101251.91
2022-11-05T09:32:31.204Z,101254.50
2022-11-05T09:34:57.615Z,101257.97
2022-11-05T09:37:23.991Z,101260.56
2022-11-05T09:39:50.400Z,101254.25
2022-11-05T09:42:17.054Z,101255.16
2022-11-05T09:44:47.746Z,101257.78
2022-11-05T09:47:17.244Z,101253.19
2022-11-05T09:49:51.908Z,101255.81
2022-11-05T09:52:36.495Z,101258.28
2022-11-05T09:55:04.055Z,101261.66
2022-11-05T09:58:00.330Z,101260.69
2022-11-05T10:00:26.856Z,101260.63
2022-11-05T10:03:03.334Z,101263.19
2022-11-05T10:05:29.783Z,101266.72
2022-11-05T10:08:05.044Z,101265.72
2022-11-05T10:10:41.067Z,101261.38
2022-11-05T10:13:17.131Z,101267.31
2022-11-05T10:15:51.885Z,101269.00
2022-11-05T10:18:25.867Z,101262.69
2022-11-05T10:20:52.517Z,101267.00
2022-11-05T10:23:19.707Z,101277.44
2022-11-05T10:25:55.086Z,101276.25
2022-11-05T10:28:24.913Z,101284.00
2022-11-05T10:30:52.902Z,101289.09
2022-11-05T10:33:24.859Z,101293.44
2022-11-05T10:35:52.265Z,101289.84
2022-11-05T10:38:18.648Z,101289.97
2022-11-05T10:41:00.103Z,101294.66
2022-11-05T10:43:45.551Z,101295.78
2022-11-05T10:46:37.533Z,101292.19
2022-11-05T10:49:47.413Z,101293.84
2022-11-05T10:52:31.395Z,101287.41
2022-11-05T10:55:00.781Z,101295.31
2022-11-05T10:57:29.882Z,101289.84
2022-11-05T11:00:14.157Z,101287.91
2022-11-05T11:02:41.734Z,101286.81
2022-11-05T11:05:08.827Z,101279.50
2022-11-05T11:07:35.223Z,101285.50
2022-11-05T11:10:01.662Z,101279.09
2022-11-05T11:12:35.627Z,101289.66
2022-11-05T11:15:13.839Z,101285.19
2022-11-05T11:17:40.079Z,101294.22
2022-11-05T11:20:20.157Z,101292.69
2022-11-05T11:23:18.852Z,101295.53
2022-11-05T11:25:52.815Z,101293.84
2022-11-05T11:28:26.367Z,101290.94
2022-11-05T11:31:05.050Z,101287.19
2022-11-05T11:33:31.482Z,101286.13
2022-11-05T11:35:57.896Z,101287.84
2022-11-05T11:38:24.314Z,101284.97
2022-11-05T11:40:50.729Z,101284.75
2022-11-05T11:43:29.230Z,101288.06
2022-11-05T11:45:59.362Z,101290.56
2022-11-05T11:48:29.368Z,101289.66
2022-11-05T11:50:56.391Z,101282.53
2022-11-05T11:53:40.960Z,101287.09
2022-11-05T11:56:19.975Z,101287.09
2022-11-05T11:58:54.074Z,101286.25
2022-11-05T12:01:39.221Z,101284.38
2022-11-05T12:04:40.910Z,101285.28
2022-11-05T12:07:32.825Z,101283.66
2022-11-05T12:09:59.077Z,101281.06
2022-11-05T12:12:35.366Z,101283.47
2022-11-05T12:15:35.858Z,101277.59
2022-11-05T12:18:06.278Z,101276.09
2022-11-05T12:20:58.029Z,101271.19
2022-11-05T12:23:28.351Z,101277.09
2022-11-05T12:26:22.267Z,101280.19
2022-11-05T12:29:18.545Z,101280.63
2022-11-05T12:31:45.514Z,101282.88
2022-11-05T12:34:53.350Z,101274.53
2022-11-05T12:37:30.396Z,101269.13
2022-11-05T12:40:02.968Z,101260.13
2022-11-05T12:42:56.999Z,101261.63
2022-11-05T12:45:39.274Z,101257.44
2022-11-05T12:48:30.288Z,101267.28
2022-11-05T12:51:19.379Z,101266.41
2022-11-05T12:53:48.811Z,101274.19
2022-11-05T12:56:35.747Z,101268.19
2022-11-05T12:59:17.068Z,101271.38
2022-11-05T13:01:46.659Z,101278.06
2022-11-05T13:04:28.301Z,101283.66
2022-11-05T13:06:55.081Z,101285.09
2022-11-05T13:09:53.238Z,101284.72
2022-11-05T13:12:21.478Z,101273.47
2022-11-05T13:15:06.632Z,101273.75
2022-11-05T13:17:50.960Z,101278.78
2022-11-05T13:20:22.074Z,101281.72
2022-11-05T13:22:51.769Z,101275.31
2022-11-05T13:25:22.137Z,101275.22
2022-11-05T13:27:57.743Z,101271.09
2022-11-05T13:30:31.886Z,101272.22
2022-11-05T13:33:02.273Z,101262.59
2022-11-05T13:35:36.139Z,101266.13
2022-11-05T13:38:05.305Z,101265.50
2022-11-05T13:40:57.406Z,101264.50
2022-11-05T13:43:44.533Z,101262.00
2022-11-05T13:46:38.467Z,101259.53
2022-11-05T13:49:20.632Z,101263.25
2022-11-05T13:52:18.449Z,101265.03
2022-11-05T13:54:49.904Z,101262.38
2022-11-05T13:57:38.040Z,101262.31
2022-11-05T14:00:23.847Z,101266.34
2022-11-05T14:03:02.049Z,101267.50
2022-11-05T14:05:35.589Z,101260.41
2022-11-05T14:08:24.018Z,101259.88
2022-11-05T14:11:04.966Z,101265.28
2022-11-05T14:13:39.722Z,101262.09
2022-11-05T14:16:10.557Z,101261.47
2022-11-05T14:18:45.021Z,101259.91
2022-11-05T14:21:47.470Z,101262.97
2022-11-05T14:24:22.617Z,101263.66
2022-11-05T14:27:01.125Z,101263.09
2022-11-05T14:29:43.719Z,101264.72
2022-11-05T14:32:19.277Z,101269.31
2022-11-05T14:34:54.834Z,101261.47
2022-11-05T14:37:22.052Z,101262.78
2022-11-05T14:39:48.437Z,101266.69
2022-11-05T14:42:29.460Z,101271.22
2022-11-05T14:45:19.366Z,101270.75
2022-11-05T14:47:54.154Z,101271.88
2022-11-05T14:50:40.093Z,101279.19
2022-11-05T14:53:22.631Z,101286.53
2022-11-05T14:56:21.197Z,101277.84
2022-11-05T14:58:47.903Z,101282.59
2022-11-05T15:01:14.271Z,101283.59
2022-11-05T15:03:46.049Z,101279.31
2022-11-05T15:06:19.845Z,101291.81
2022-11-05T15:08:49.098Z,101293.63
2022-11-05T15:11:27.560Z,101281.38
2022-11-05T15:13:53.819Z,101299.28
2022-11-05T15:16:26.071Z,101292.28
2022-11-05T15:18:53.382Z,101295.91
2022-11-05T15:21:19.917Z,101290.88
2022-11-05T15:23:47.733Z,101294.53
2022-11-05T15:26:46.566Z,101298.31
2022-11-05T15:29:23.947Z,101299.25
2022-11-05T15:31:50.429Z,101301.19
2022-11-05T15:34:25.027Z,101300.34
2022-11-05T15:37:15.787Z,101301.38
2022-11-05T15:39:43.429Z,101299.78
2022-11-05T15:42:25.786Z,101305.16
2022-11-05T15:44:56.575Z,101310.47
2022-11-05T15:47:27.457Z,101308.69
2022-11-05T15:49:58.303Z,101299.06
2022-11-05T15:52:32.950Z,101305.38
2022-11-05T15:57:51.255Z,101305.50
2022-11-05T16:00:28.958Z,101303.75
2022-11-05T16:03:12.384Z,101304.72
2022-11-05T16:05:42.211Z,101298.56
2022-11-05T16:08:15.311Z,101297.72
2022-11-05T16:10:47.050Z,101300.38
2022-11-05T16:13:35.346Z,101293.28
2022-11-05T16:16:23.136Z,101297.72
2022-11-05T16:18:49.936Z,101298.66
2022-11-05T16:21:18.051Z,101293.44
2022-11-05T16:23:57.776Z,101299.63
2022-11-05T16:29:27.582Z,101298.75
2022-11-05T16:31:54.531Z,101289.97
2022-11-05T16:34:27.066Z,101296.94
2022-11-05T16:36:57.661Z,101295.31
2022-11-05T16:39:24.336Z,101297.06
2022-11-05T16:41:50.962Z,101304.19
2022-11-05T16:44:17.500Z,101298.03
2022-11-05T16:46:47.056Z,101306.97
2022-11-05T16:49:13.602Z,101300.78
2022-11-05T16:51:42.337Z,101302.56
2022-11-05T16:54:08.831Z,101301.72
2022-11-05T16:56:35.556Z,101305.22
2022-11-05T16:59:02.141Z,101302.66
2022-11-05T17:01:28.929Z,101309.72
2022-11-05T17:03:55.786Z,101309.75
2022-11-05T17:06:22.437Z,101320.41
2022-11-05T17:08:49.202Z,101318.59
2022-11-05T17:11:20.065Z,101318.72
2022-11-05T17:13:47.121Z,101317.84
2022-11-05T17:16:16.281Z,101319.69
2022-11-05T17:18:43.073Z,101320.59
2022-11-05T17:21:09.869Z,101328.56
2022-11-05T17:23:37.151Z,101327.78
2022-11-05T17:26:10.844Z,101329.66
2022-11-05T17:28:37.707Z,101335.94
2022-11-05T17:31:05.442Z,101338.63
2022-11-05T17:33:32.258Z,101338.69
2022-11-05T17:35:58.880Z,101339.66
2022-11-05T17:38:26.226Z,101345.88
2022-11-05T17:40:52.844Z,101335.28
2022-11-05T17:43:19.873Z,101349.59
2022-11-05T17:45:48.447Z,101345.19
2022-11-05T17:48:15.286Z,101332.78
2022-11-05T17:50:42.968Z,101331.94
2022-11-05T17:53:10.255Z,101331.88
2022-11-05T17:55:37.061Z,101333.69
2022-11-05T17:58:04.899Z,101338.97
2022-11-05T18:00:32.199Z,101345.16
2022-11-05T18:02:58.962Z,101344.31
2022-11-05T18:05:25.552Z,101332.78
2022-11-05T18:07:52.232Z,101340.78
2022-11-05T18:10:18.673Z,101338.97
2022-11-05T18:12:45.233Z,101339.84
2022-11-05T18:15:12.209Z,101338.13
2022-11-05T18:17:38.683Z,101338.06
2022-11-05T18:20:05.770Z,101331.78
2022-11-05T18:22:32.193Z,101329.16
2022-11-05T18:24:58.669Z,101334.50
2022-11-05T18:27:25.066Z,101327.44
2022-11-05T18:29:51.466Z,101328.28
2022-11-05T18:32:17.930Z,101337.13
2022-11-05T18:34:44.335Z,101320.31
2022-11-05T18:37:10.761Z,101340.41
2022-11-05T18:39:37.205Z,101332.50
2022-11-05T18:42:06.264Z,101338.78
2022-11-05T18:44:37.943Z,101322.94
2022-11-05T18:47:05.869Z,101321.16
2022-11-05T18:49:32.364Z,101313.22
2022-11-05T18:51:59.998Z,101313.25
2022-11-05T18:54:26.590Z,101315.06
2022-11-05T18:56:53.031Z,101316.91
2022-11-05T18:59:36.855Z,101308.94
2022-11-05T19:02:04.738Z,101312.53
2022-11-05T19:04:31.373Z,101316.06
2022-11-05T19:07:01.716Z,101310.00
2022-11-05T19:09:35.723Z,101314.44
2022-11-05T19:12:02.378Z,101310.03
2022-11-05T19:14:30.407Z,101314.50
2022-11-05T19:16:59.733Z,101314.44
2022-11-05T19:19:26.235Z,101317.13
2022-11-05T19:21:53.700Z,101323.22
2022-11-05T19:24:20.155Z,101320.53
2022-11-05T19:26:47.671Z,101309.00
2022-11-05T19:29:15.267Z,101316.13
2022-11-05T19:31:41.918Z,101321.50
2022-11-05T19:34:09.509Z,101318.00
2022-11-05T19:36:35.961Z,101314.38
2022-11-05T19:39:05.879Z,101306.47
2022-11-05T19:41:32.404Z,101325.00
2022-11-05T19:43:58.826Z,101313.63
2022-11-05T19:46:25.369Z,101312.69
2022-11-05T19:48:51.842Z,101306.53
2022-11-05T19:51:20.293Z,101323.25
2022-11-05T19:53:46.698Z,101327.66
2022-11-05T19:56:16.980Z,101320.66
2022-11-05T19:58:43.784Z,101332.22
2022-11-05T20:01:11.283Z,101322.53
2022-11-05T20:03:37.926Z,101325.19
2022-11-05T20:06:09.734Z,101327.81
2022-11-05T20:08:47.845Z,101333.13
2022-11-05T20:11:22.933Z,101335.78
2022-11-05T20:13:49.370Z,101326.03
2022-11-05T20:16:19.785Z,101315.41
2022-11-05T20:18:47.601Z,101316.41
2022-11-05T20:21:14.084Z,101320.84
2022-11-05T20:23:40.491Z,101319.84
2022-11-05T20:26:09.458Z,101326.03
2022-11-05T20:28:36.235Z,101323.41
2022-11-05T20:31:09.908Z,101317.19
2022-11-05T20:33:36.959Z,101325.19
2022-11-05T20:36:10.974Z,101312.91
2022-11-05T20:38:37.501Z,101317.16
2022-11-05T20:41:07.947Z,101324.22
2022-11-05T20:43:34.345Z,101330.47
2022-11-05T20:46:00.882Z,101330.34
2022-11-05T20:48:30.518Z,101323.25
2022-11-05T20:50:56.943Z,101332.22
2022-11-05T20:53:23.355Z,101317.19
2022-11-05T20:55:49.745Z,101317.28
2022-11-05T20:58:16.599Z,101319.88
2022-11-05T21:00:51.197Z,101313.63
2022-11-05T21:03:18.115Z,101311.91
2022-11-05T21:05:46.180Z,101316.47
2022-11-05T21:08:12.740Z,101318.31
2022-11-05T21:10:39.505Z,101320.13
2022-11-05T21:13:05.925Z,101323.69
2022-11-05T21:15:32.398Z,101320.19
2022-11-05T21:18:02.228Z,101330.81
2022-11-05T21:20:29.617Z,101319.25
2022-11-05T21:22:56.063Z,101320.13
2022-11-05T21:25:22.474Z,101325.47
2022-11-05T21:27:48.850Z,101322.72
2022-11-05T21:30:15.329Z,101326.34
2022-11-05T21:32:41.796Z,101317.47
2022-11-05T21:35:08.528Z,101314.75
2022-11-05T21:37:35.262Z,101315.53
2022-11-05T21:40:03.363Z,101310.22
2022-11-05T21:42:29.825Z,101310.22
2022-11-05T21:45:00.201Z,101308.50
2022-11-05T21:47:28.404Z,101302.34
2022-11-05T21:49:57.874Z,101288.19
2022-11-05T21:52:24.315Z,101301.44
2022-11-05T21:54:50.774Z,101288.91
2022-11-05T21:57:17.244Z,101288.09
2022-11-05T21:59:44.088Z,101294.16
2022-11-05T22:02:12.056Z,101288.03
2022-11-05T22:04:42.407Z,101293.41
2022-11-05T22:07:09.826Z,101286.22
2022-11-05T22:09:36.323Z,101288.91
2022-11-05T22:12:02.974Z,101290.69
2022-11-05T22:14:29.392Z,101285.41
2022-11-05T22:16:55.930Z,101285.41
2022-11-05T22:19:22.622Z,101280.13
2022-11-05T22:21:49.158Z,101275.78
2022-11-05T22:24:15.679Z,101273.19
2022-11-05T22:26:42.235Z,101271.47
2022-11-05T22:29:08.709Z,101269.66
2022-11-05T22:31:36.666Z,101265.22
2022-11-05T22:34:04.101Z,101265.19
2022-11-05T22:36:30.483Z,101272.28
2022-11-05T22:38:56.894Z,101259.81
2022-11-05T22:41:23.395Z,101256.34
2022-11-05T22:43:49.809Z,101255.44
2022-11-05T22:46:21.220Z,101256.34
2022-11-05T22:48:47.885Z,101263.38
2022-11-05T22:51:19.035Z,101259.75
2022-11-05T22:53:50.122Z,101253.50
2022-11-05T22:56:18.225Z,101263.25
2022-11-05T22:58:44.598Z,101265.94
2022-11-05T23:01:11.621Z,101273.00
2022-11-05T23:03:38.652Z,101265.03
2022-11-05T23:06:07.123Z,101261.50
2022-11-05T23:08:33.550Z,101263.22
2022-11-05T23:10:59.936Z,101260.56
2022-11-05T23:13:26.371Z,101247.28
2022-11-05T23:15:52.824Z,101253.63
2022-11-05T23:18:19.225Z,101254.53
2022-11-05T23:20:45.607Z,101253.69
2022-11-05T23:23:12.136Z,101251.03
2022-11-05T23:25:38.510Z,101237.88
2022-11-05T23:28:06.921Z,101251.88
2022-11-05T23:30:33.381Z,101244.81
2022-11-05T23:32:59.767Z,101247.41
2022-11-05T23:35:26.177Z,101235.84
2022-11-05T23:37:52.581Z,101235.75
2022-11-05T23:40:26.834Z,101217.28
2022-11-05T23:42:53.308Z,101236.59
2022-11-05T23:45:19.889Z,101222.38
2022-11-05T23:47:46.302Z,101217.06
2022-11-05T23:50:12.729Z,101222.38
2022-11-05T23:52:39.117Z,101213.41
2022-11-05T23:55:05.629Z,101209.84
2022-11-05T23:57:32.034Z,101204.50
2022-11-05T23:59:58.423Z,101211.59
